sensor_id;sensor_type;location;lat;lon;timestamp;pressure;altitude;pressure_sealevel;temperature;humidity
2711;BME280;20721;47.402;8.550;2023-02-28T00:00:23;96340;;;0.29;55.40
2711;BME280;20721;47.402;8.550;2023-02-28T00:01:23;96343;;;0.33;55.27
2711;BME280;20721;47.402;8.550;2023-02-28T00:02:23;96337;;;0.37;55.26
2711;BME280;20721;47.402;8.550;2023-02-28T00:03:23;96343;;;0.42;55.12
2711;BME280;20721;47.402;8.550;2023-02-28T00:04:23;96346;;;0.43;54.85
2711;BME280;20721;47.402;8.550;2023-02-28T00:05:24;96343;;;0.51;54.87
2711;BME280;20721;47.402;8.550;2023-02-28T00:07:23;96347;;;0.45;54.85
2711;BME280;20721;47.402;8.550;2023-02-28T00:08:23;96351;;;0.49;54.93
2711;BME280;20721;47.402;8.550;2023-02-28T00:09:23;96349;;;0.43;54.90
2711;BME280;20721;47.402;8.550;2023-02-28T00:10:24;96351;;;0.42;54.97
2711;BME280;20721;47.402;8.550;2023-02-28T00:11:23;96347;;;0.39;55.14
2711;BME280;20721;47.402;8.550;2023-02-28T00:12:24;96355;;;0.41;55.17
2711;BME280;20721;47.402;8.550;2023-02-28T00:13:23;96347;;;0.32;55.21
2711;BME280;20721;47.402;8.550;2023-02-28T00:14:23;96347;;;0.39;55.20
2711;BME280;20721;47.402;8.550;2023-02-28T00:15:23;96349;;;0.49;55.05
2711;BME280;20721;47.402;8.550;2023-02-28T00:16:23;96344;;;0.53;54.93
2711;BME280;20721;47.402;8.550;2023-02-28T00:17:23;96343;;;0.55;54.71
2711;BME280;20721;47.402;8.550;2023-02-28T00:19:23;96345;;;0.48;54.80
2711;BME280;20721;47.402;8.550;2023-02-28T00:20:23;96346;;;0.33;55.29
2711;BME280;20721;47.402;8.550;2023-02-28T00:21:24;96344;;;0.37;55.47
2711;BME280;20721;47.402;8.550;2023-02-28T00:22:23;96343;;;0.43;55.17
2711;BME280;20721;47.402;8.550;2023-02-28T00:23:23;96347;;;0.55;55.14
2711;BME280;20721;47.402;8.550;2023-02-28T00:24:23;96348;;;0.62;54.70
2711;BME280;20721;47.402;8.550;2023-02-28T00:25:24;96350;;;0.69;54.57
2711;BME280;20721;47.402;8.550;2023-02-28T00:26:23;96352;;;0.76;54.33
2711;BME280;20721;47.402;8.550;2023-02-28T00:27:23;96349;;;0.71;54.32
2711;BME280;20721;47.402;8.550;2023-02-28T00:28:23;96351;;;0.74;54.41
2711;BME280;20721;47.402;8.550;2023-02-28T00:29:23;96348;;;0.73;54.26
2711;BME280;20721;47.402;8.550;2023-02-28T00:30:23;96348;;;0.77;54.19
2711;BME280;20721;47.402;8.550;2023-02-28T00:32:23;96352;;;0.75;54.23
2711;BME280;20721;47.402;8.550;2023-02-28T00:33:23;96350;;;0.78;54.16
2711;BME280;20721;47.402;8.550;2023-02-28T00:34:23;96350;;;0.90;54.05
2711;BME280;20721;47.402;8.550;2023-02-28T00:35:23;96349;;;0.89;54.09
2711;BME280;20721;47.402;8.550;2023-02-28T00:37:23;96348;;;0.90;53.92
2711;BME280;20721;47.402;8.550;2023-02-28T00:38:23;96347;;;0.93;53.84
2711;BME280;20721;47.402;8.550;2023-02-28T00:39:23;96345;;;1.00;53.87
2711;BME280;20721;47.402;8.550;2023-02-28T00:40:23;96347;;;1.07;53.79
2711;BME280;20721;47.402;8.550;2023-02-28T00:41:23;96350;;;1.09;53.65
2711;BME280;20721;47.402;8.550;2023-02-28T00:42:24;96348;;;1.14;53.59
2711;BME280;20721;47.402;8.550;2023-02-28T00:43:23;96345;;;1.15;53.49
2711;BME280;20721;47.402;8.550;2023-02-28T00:44:23;96348;;;1.17;53.42
2711;BME280;20721;47.402;8.550;2023-02-28T00:45:23;96344;;;1.12;53.27
2711;BME280;20721;47.402;8.550;2023-02-28T00:46:23;96346;;;1.10;53.39
2711;BME280;20721;47.402;8.550;2023-02-28T00:47:23;96346;;;1.12;53.42
2711;BME280;20721;47.402;8.550;2023-02-28T00:48:23;96348;;;1.13;53.17
2711;BME280;20721;47.402;8.550;2023-02-28T00:49:23;96345;;;1.12;53.26
2711;BME280;20721;47.402;8.550;2023-02-28T00:50:23;96347;;;0.95;53.71
2711;BME280;20721;47.402;8.550;2023-02-28T00:51:23;96347;;;1.00;53.80
2711;BME280;20721;47.402;8.550;2023-02-28T00:52:23;96348;;;1.07;53.59
2711;BME280;20721;47.402;8.550;2023-02-28T00:53:23;96345;;;1.09;53.58
2711;BME280;20721;47.402;8.550;2023-02-28T00:54:23;96348;;;1.14;53.42
2711;BME280;20721;47.402;8.550;2023-02-28T00:55:23;96348;;;1.25;53.35
2711;BME280;20721;47.402;8.550;2023-02-28T00:56:23;96349;;;1.29;52.96
2711;BME280;20721;47.402;8.550;2023-02-28T00:57:23;96349;;;1.27;52.95
2711;BME280;20721;47.402;8.550;2023-02-28T00:58:23;96349;;;1.08;53.18
2711;BME280;20721;47.402;8.550;2023-02-28T00:59:23;96352;;;1.02;53.60
2711;BME280;20721;47.402;8.550;2023-02-28T01:00:23;96353;;;1.06;53.73
2711;BME280;20721;47.402;8.550;2023-02-28T01:01:23;96351;;;1.10;53.32
2711;BME280;20721;47.402;8.550;2023-02-28T01:02:23;96350;;;1.16;53.42
2711;BME280;20721;47.402;8.550;2023-02-28T01:03:23;96349;;;1.25;53.18
2711;BME280;20721;47.402;8.550;2023-02-28T01:04:23;96353;;;1.27;53.05
2711;BME280;20721;47.402;8.550;2023-02-28T01:05:23;96350;;;1.31;52.99
2711;BME280;20721;47.402;8.550;2023-02-28T01:07:23;96351;;;1.35;52.94
2711;BME280;20721;47.402;8.550;2023-02-28T01:08:23;96351;;;1.42;52.84
2711;BME280;20721;47.402;8.550;2023-02-28T01:09:23;96352;;;1.49;52.64
2711;BME280;20721;47.402;8.550;2023-02-28T01:10:24;96353;;;1.48;52.58
2711;BME280;20721;47.402;8.550;2023-02-28T01:11:23;96351;;;1.46;52.63
2711;BME280;20721;47.402;8.550;2023-02-28T01:12:23;96353;;;1.45;52.69
2711;BME280;20721;47.402;8.550;2023-02-28T01:13:25;96353;;;1.47;52.56
2711;BME280;20721;47.402;8.550;2023-02-28T01:14:23;96347;;;1.39;52.69
2711;BME280;20721;47.402;8.550;2023-02-28T01:15:23;96353;;;1.38;52.74
2711;BME280;20721;47.402;8.550;2023-02-28T01:16:23;96349;;;1.44;52.75
2711;BME280;20721;47.402;8.550;2023-02-28T01:17:23;96347;;;1.50;52.63
2711;BME280;20721;47.402;8.550;2023-02-28T01:18:24;96348;;;1.44;52.26
2711;BME280;20721;47.402;8.550;2023-02-28T01:19:48;96342;;;1.34;52.58
2711;BME280;20721;47.402;8.550;2023-02-28T01:20:23;96343;;;1.27;52.80
2711;BME280;20721;47.402;8.550;2023-02-28T01:21:23;96340;;;1.23;52.93
2711;BME280;20721;47.402;8.550;2023-02-28T01:22:23;96343;;;1.12;53.13
2711;BME280;20721;47.402;8.550;2023-02-28T01:23:23;96343;;;1.09;53.32
2711;BME280;20721;47.402;8.550;2023-02-28T01:24:23;96346;;;1.07;53.49
2711;BME280;20721;47.402;8.550;2023-02-28T01:25:24;96344;;;1.10;53.45
2711;BME280;20721;47.402;8.550;2023-02-28T01:26:23;96346;;;1.17;53.37
2711;BME280;20721;47.402;8.550;2023-02-28T01:27:23;96343;;;1.12;53.30
2711;BME280;20721;47.402;8.550;2023-02-28T01:28:23;96339;;;1.02;53.43
2711;BME280;20721;47.402;8.550;2023-02-28T01:29:23;96346;;;0.97;53.64
2711;BME280;20721;47.402;8.550;2023-02-28T01:30:24;96348;;;1.04;53.68
2711;BME280;20721;47.402;8.550;2023-02-28T01:32:41;96346;;;1.16;53.56
2711;BME280;20721;47.402;8.550;2023-02-28T01:33:23;96347;;;1.22;53.29
2711;BME280;20721;47.402;8.550;2023-02-28T01:34:23;96346;;;1.25;53.36
2711;BME280;20721;47.402;8.550;2023-02-28T01:35:23;96346;;;1.33;53.22
2711;BME280;20721;47.402;8.550;2023-02-28T01:36:24;96346;;;1.37;52.96
2711;BME280;20721;47.402;8.550;2023-02-28T01:37:24;96348;;;1.39;52.84
2711;BME280;20721;47.402;8.550;2023-02-28T01:38:23;96348;;;1.45;52.85
2711;BME280;20721;47.402;8.550;2023-02-28T01:39:23;96348;;;1.53;52.77
2711;BME280;20721;47.402;8.550;2023-02-28T01:40:23;96346;;;1.60;52.57
2711;BME280;20721;47.402;8.550;2023-02-28T01:41:27;96344;;;1.64;52.63
2711;BME280;20721;47.402;8.550;2023-02-28T01:42:23;96350;;;1.56;52.28
2711;BME280;20721;47.402;8.550;2023-02-28T01:43:26;96349;;;1.50;52.24
2711;BME280;20721;47.402;8.550;2023-02-28T01:45:31;96347;;;1.39;52.71
2711;BME280;20721;47.402;8.550;2023-02-28T01:46:24;96351;;;1.41;52.72
2711;BME280;20721;47.402;8.550;2023-02-28T01:47:23;96347;;;1.42;52.84
2711;BME280;20721;47.402;8.550;2023-02-28T01:48:25;96350;;;1.45;52.65
2711;BME280;20721;47.402;8.550;2023-02-28T01:49:23;96343;;;1.43;52.54
2711;BME280;20721;47.402;8.550;2023-02-28T01:51:26;96343;;;1.45;52.64
2711;BME280;20721;47.402;8.550;2023-02-28T01:52:24;96341;;;1.48;52.41
2711;BME280;20721;47.402;8.550;2023-02-28T01:53:26;96343;;;1.52;52.48
2711;BME280;20721;47.402;8.550;2023-02-28T01:54:24;96343;;;1.55;52.30
2711;BME280;20721;47.402;8.550;2023-02-28T01:56:25;96347;;;1.50;52.16
2711;BME280;20721;47.402;8.550;2023-02-28T01:57:24;96345;;;1.49;52.27
2711;BME280;20721;47.402;8.550;2023-02-28T01:58:24;96342;;;1.42;52.54
2711;BME280;20721;47.402;8.550;2023-02-28T01:59:27;96345;;;1.41;52.64
2711;BME280;20721;47.402;8.550;2023-02-28T02:00:25;96344;;;1.37;52.57
2711;BME280;20721;47.402;8.550;2023-02-28T02:01:24;96344;;;1.40;52.41
2711;BME280;20721;47.402;8.550;2023-02-28T02:02:24;96344;;;1.38;52.60
2711;BME280;20721;47.402;8.550;2023-02-28T02:03:23;96341;;;1.42;52.60
2711;BME280;20721;47.402;8.550;2023-02-28T02:04:24;96340;;;1.49;52.45
2711;BME280;20721;47.402;8.550;2023-02-28T02:05:25;96344;;;1.52;52.38
2711;BME280;20721;47.402;8.550;2023-02-28T02:06:25;96339;;;1.55;52.21
2711;BME280;20721;47.402;8.550;2023-02-28T02:07:23;96337;;;1.60;52.20
2711;BME280;20721;47.402;8.550;2023-02-28T02:08:25;96333;;;1.58;52.13
2711;BME280;20721;47.402;8.550;2023-02-28T02:09:23;96335;;;1.54;52.10
2711;BME280;20721;47.402;8.550;2023-02-28T02:11:23;96335;;;1.61;52.20
2711;BME280;20721;47.402;8.550;2023-02-28T02:17:27;96333;;;1.48;52.22
2711;BME280;20721;47.402;8.550;2023-02-28T02:21:32;96324;;;1.38;52.74
2711;BME280;20721;47.402;8.550;2023-02-28T02:22:29;96316;;;1.44;52.52
2711;BME280;20721;47.402;8.550;2023-02-28T02:25:28;96323;;;1.70;52.17
2711;BME280;20721;47.402;8.550;2023-02-28T02:28:33;96319;;;1.65;51.68
2711;BME280;20721;47.402;8.550;2023-02-28T02:31:29;96313;;;1.42;52.36
2711;BME280;20721;47.402;8.550;2023-02-28T02:32:28;96320;;;1.45;52.32
2711;BME280;20721;47.402;8.550;2023-02-28T02:33:26;96320;;;1.39;52.33
2711;BME280;20721;47.402;8.550;2023-02-28T02:34:40;96320;;;1.41;52.51
2711;BME280;20721;47.402;8.550;2023-02-28T02:35:27;96314;;;1.46;52.44
2711;BME280;20721;47.402;8.550;2023-02-28T02:36:24;96314;;;1.44;52.36
2711;BME280;20721;47.402;8.550;2023-02-28T02:39:27;96312;;;1.45;52.45
2711;BME280;20721;47.402;8.550;2023-02-28T02:40:25;96308;;;1.40;52.43
2711;BME280;20721;47.402;8.550;2023-02-28T02:42:27;96312;;;1.37;52.36
2711;BME280;20721;47.402;8.550;2023-02-28T02:43:29;96315;;;1.34;52.69
2711;BME280;20721;47.402;8.550;2023-02-28T02:44:25;96313;;;1.38;52.68
2711;BME280;20721;47.402;8.550;2023-02-28T02:45:26;96313;;;1.39;52.59
2711;BME280;20721;47.402;8.550;2023-02-28T02:46:33;96311;;;1.41;52.61
2711;BME280;20721;47.402;8.550;2023-02-28T02:47:24;96313;;;1.35;52.50
2711;BME280;20721;47.402;8.550;2023-02-28T02:49:26;96314;;;1.30;52.72
2711;BME280;20721;47.402;8.550;2023-02-28T02:50:25;96316;;;1.28;52.84
2711;BME280;20721;47.402;8.550;2023-02-28T02:51:24;96315;;;1.30;52.81
2711;BME280;20721;47.402;8.550;2023-02-28T02:53:27;96316;;;1.19;52.86
2711;BME280;20721;47.402;8.550;2023-02-28T02:54:25;96313;;;1.00;53.26
2711;BME280;20721;47.402;8.550;2023-02-28T02:55:24;96317;;;0.93;53.61
2711;BME280;20721;47.402;8.550;2023-02-28T02:56:25;96315;;;0.92;53.91
2711;BME280;20721;47.402;8.550;2023-02-28T02:57:27;96311;;;1.02;53.74
2711;BME280;20721;47.402;8.550;2023-02-28T02:58:25;96314;;;1.09;53.39
2711;BME280;20721;47.402;8.550;2023-02-28T02:59:24;96309;;;1.13;53.12
2711;BME280;20721;47.402;8.550;2023-02-28T03:00:30;96308;;;1.15;53.18
2711;BME280;20721;47.402;8.550;2023-02-28T03:01:28;96313;;;1.18;53.04
2711;BME280;20721;47.402;8.550;2023-02-28T03:03:28;96307;;;1.06;53.10
2711;BME280;20721;47.402;8.550;2023-02-28T03:04:24;96308;;;0.94;53.55
2711;BME280;20721;47.402;8.550;2023-02-28T03:06:24;96307;;;1.05;53.63
2711;BME280;20721;47.402;8.550;2023-02-28T03:07:24;96303;;;1.14;53.37
2711;BME280;20721;47.402;8.550;2023-02-28T03:08:24;96304;;;1.22;53.18
2711;BME280;20721;47.402;8.550;2023-02-28T03:09:24;96304;;;1.20;52.98
2711;BME280;20721;47.402;8.550;2023-02-28T03:10:40;96307;;;1.22;53.20
2711;BME280;20721;47.402;8.550;2023-02-28T03:11:24;96307;;;1.30;53.06
2711;BME280;20721;47.402;8.550;2023-02-28T03:12:28;96303;;;1.40;52.85
2711;BME280;20721;47.402;8.550;2023-02-28T03:13:37;96302;;;1.41;52.75
2711;BME280;20721;47.402;8.550;2023-02-28T03:15:26;96303;;;1.51;52.64
2711;BME280;20721;47.402;8.550;2023-02-28T03:17:30;96302;;;1.57;52.30
2711;BME280;20721;47.402;8.550;2023-02-28T03:19:30;96305;;;1.60;52.16
2711;BME280;20721;47.402;8.550;2023-02-28T03:26:25;96306;;;1.58;51.94
2711;BME280;20721;47.402;8.550;2023-02-28T03:27:25;96308;;;1.56;52.21
2711;BME280;20721;47.402;8.550;2023-02-28T03:29:33;96308;;;1.54;52.09
2711;BME280;20721;47.402;8.550;2023-02-28T03:30:41;96304;;;1.53;52.15
2711;BME280;20721;47.402;8.550;2023-02-28T03:31:28;96303;;;1.45;52.16
2711;BME280;20721;47.402;8.550;2023-02-28T03:32:25;96304;;;1.23;52.64
2711;BME280;20721;47.402;8.550;2023-02-28T03:33:26;96310;;;1.18;52.89
2711;BME280;20721;47.402;8.550;2023-02-28T03:34:26;96311;;;1.13;53.06
2711;BME280;20721;47.402;8.550;2023-02-28T03:35:25;96311;;;1.14;53.16
2711;BME280;20721;47.402;8.550;2023-02-28T03:36:25;96316;;;1.21;53.08
2711;BME280;20721;47.402;8.550;2023-02-28T03:37:24;96320;;;1.31;53.03
2711;BME280;20721;47.402;8.550;2023-02-28T03:38:27;96317;;;1.36;52.72
2711;BME280;20721;47.402;8.550;2023-02-28T03:39:27;96311;;;1.41;52.61
2711;BME280;20721;47.402;8.550;2023-02-28T03:40:25;96320;;;1.47;52.45
2711;BME280;20721;47.402;8.550;2023-02-28T03:41:26;96320;;;1.48;52.33
2711;BME280;20721;47.402;8.550;2023-02-28T03:42:25;96318;;;1.53;52.35
2711;BME280;20721;47.402;8.550;2023-02-28T03:43:26;96312;;;1.49;52.18
2711;BME280;20721;47.402;8.550;2023-02-28T03:44:25;96316;;;1.43;52.41
2711;BME280;20721;47.402;8.550;2023-02-28T03:45:25;96318;;;1.39;52.30
2711;BME280;20721;47.402;8.550;2023-02-28T03:46:24;96315;;;1.41;52.50
2711;BME280;20721;47.402;8.550;2023-02-28T03:47:25;96317;;;1.44;52.29
2711;BME280;20721;47.402;8.550;2023-02-28T03:48:26;96322;;;1.39;52.37
2711;BME280;20721;47.402;8.550;2023-02-28T03:50:24;96320;;;1.43;52.37
2711;BME280;20721;47.402;8.550;2023-02-28T03:51:24;96318;;;1.49;52.28
2711;BME280;20721;47.402;8.550;2023-02-28T03:52:25;96317;;;1.54;52.13
2711;BME280;20721;47.402;8.550;2023-02-28T03:54:27;96318;;;1.59;51.89
2711;BME280;20721;47.402;8.550;2023-02-28T03:55:24;96315;;;1.46;51.99
2711;BME280;20721;47.402;8.550;2023-02-28T03:56:29;96320;;;1.31;52.32
2711;BME280;20721;47.402;8.550;2023-02-28T03:57:28;96316;;;1.29;52.69
2711;BME280;20721;47.402;8.550;2023-02-28T03:58:27;96318;;;1.33;52.67
2711;BME280;20721;47.402;8.550;2023-02-28T03:59:26;96314;;;1.31;52.64
2711;BME280;20721;47.402;8.550;2023-02-28T04:00:30;96316;;;1.09;52.78
2711;BME280;20721;47.402;8.550;2023-02-28T04:01:26;96317;;;1.04;53.17
2711;BME280;20721;47.402;8.550;2023-02-28T04:02:24;96318;;;1.08;53.11
2711;BME280;20721;47.402;8.550;2023-02-28T04:03:24;96313;;;1.11;53.00
2711;BME280;20721;47.402;8.550;2023-02-28T04:04:24;96318;;;1.16;52.93
2711;BME280;20721;47.402;8.550;2023-02-28T04:05:24;96320;;;1.17;52.86
2711;BME280;20721;47.402;8.550;2023-02-28T04:06:24;96315;;;1.25;52.93
2711;BME280;20721;47.402;8.550;2023-02-28T04:07:24;96319;;;1.33;52.81
2711;BME280;20721;47.402;8.550;2023-02-28T04:08:24;96317;;;1.41;52.57
2711;BME280;20721;47.402;8.550;2023-02-28T04:09:24;96313;;;1.46;52.44
2711;BME280;20721;47.402;8.550;2023-02-28T04:10:24;96314;;;1.48;52.09
2711;BME280;20721;47.402;8.550;2023-02-28T04:12:24;96314;;;1.41;52.34
2711;BME280;20721;47.402;8.550;2023-02-28T04:13:24;96323;;;1.33;52.42
2711;BME280;20721;47.402;8.550;2023-02-28T04:14:24;96316;;;1.30;52.42
2711;BME280;20721;47.402;8.550;2023-02-28T04:15:24;96323;;;1.32;52.43
2711;BME280;20721;47.402;8.550;2023-02-28T04:16:34;96324;;;1.28;52.40
2711;BME280;20721;47.402;8.550;2023-02-28T04:17:24;96324;;;1.09;52.72
2711;BME280;20721;47.402;8.550;2023-02-28T04:18:24;96326;;;0.92;53.30
2711;BME280;20721;47.402;8.550;2023-02-28T04:19:24;96327;;;0.71;53.84
2711;BME280;20721;47.402;8.550;2023-02-28T04:20:24;96330;;;0.64;54.15
2711;BME280;20721;47.402;8.550;2023-02-28T04:21:28;96328;;;0.68;54.19
2711;BME280;20721;47.402;8.550;2023-02-28T04:22:27;96334;;;0.80;54.20
2711;BME280;20721;47.402;8.550;2023-02-28T04:23:25;96333;;;0.93;53.96
2711;BME280;20721;47.402;8.550;2023-02-28T04:24:25;96333;;;1.06;53.64
2711;BME280;20721;47.402;8.550;2023-02-28T04:25:24;96336;;;1.11;53.35
2711;BME280;20721;47.402;8.550;2023-02-28T04:26:24;96336;;;1.05;53.45
2711;BME280;20721;47.402;8.550;2023-02-28T04:27:24;96336;;;1.06;53.57
2711;BME280;20721;47.402;8.550;2023-02-28T04:28:24;96339;;;1.10;53.41
2711;BME280;20721;47.402;8.550;2023-02-28T04:29:25;96339;;;1.11;53.20
2711;BME280;20721;47.402;8.550;2023-02-28T04:30:24;96344;;;1.12;53.18
2711;BME280;20721;47.402;8.550;2023-02-28T04:32:24;96343;;;1.11;53.17
2711;BME280;20721;47.402;8.550;2023-02-28T04:33:24;96340;;;1.06;53.20
2711;BME280;20721;47.402;8.550;2023-02-28T04:34:24;96341;;;0.96;53.51
2711;BME280;20721;47.402;8.550;2023-02-28T04:35:24;96340;;;0.90;53.66
2711;BME280;20721;47.402;8.550;2023-02-28T04:36:24;96340;;;0.95;53.73
2711;BME280;20721;47.402;8.550;2023-02-28T04:37:28;96342;;;0.99;53.62
2711;BME280;20721;47.402;8.550;2023-02-28T04:38:24;96341;;;1.01;53.45
2711;BME280;20721;47.402;8.550;2023-02-28T04:39:24;96343;;;1.03;53.58
2711;BME280;20721;47.402;8.550;2023-02-28T04:40:24;96340;;;1.09;53.49
2711;BME280;20721;47.402;8.550;2023-02-28T04:41:24;96337;;;1.14;53.20
2711;BME280;20721;47.402;8.550;2023-02-28T04:43:25;96339;;;1.12;52.97
2711;BME280;20721;47.402;8.550;2023-02-28T04:44:24;96340;;;1.07;53.09
2711;BME280;20721;47.402;8.550;2023-02-28T04:45:24;96339;;;1.04;53.17
2711;BME280;20721;47.402;8.550;2023-02-28T04:46:24;96339;;;0.96;53.38
2711;BME280;20721;47.402;8.550;2023-02-28T04:47:24;96338;;;0.87;53.41
2711;BME280;20721;47.402;8.550;2023-02-28T04:48:24;96341;;;0.78;53.78
2711;BME280;20721;47.402;8.550;2023-02-28T04:49:24;96343;;;0.73;54.16
2711;BME280;20721;47.402;8.550;2023-02-28T04:50:24;96341;;;0.74;54.16
2711;BME280;20721;47.402;8.550;2023-02-28T04:51:24;96346;;;0.81;54.13
2711;BME280;20721;47.402;8.550;2023-02-28T04:52:24;96346;;;0.93;54.08
2711;BME280;20721;47.402;8.550;2023-02-28T04:53:24;96344;;;0.99;53.83
2711;BME280;20721;47.402;8.550;2023-02-28T04:54:24;96341;;;1.09;53.71
2711;BME280;20721;47.402;8.550;2023-02-28T04:55:24;96343;;;1.16;53.32
2711;BME280;20721;47.402;8.550;2023-02-28T04:56:24;96347;;;1.25;53.09
2711;BME280;20721;47.402;8.550;2023-02-28T04:57:24;96345;;;1.28;52.86
2711;BME280;20721;47.402;8.550;2023-02-28T04:58:25;96345;;;1.29;52.87
2711;BME280;20721;47.402;8.550;2023-02-28T04:59:24;96345;;;1.30;52.83
2711;BME280;20721;47.402;8.550;2023-02-28T05:00:25;96347;;;1.32;52.72
2711;BME280;20721;47.402;8.550;2023-02-28T05:01:25;96347;;;1.29;52.60
2711;BME280;20721;47.402;8.550;2023-02-28T05:02:24;96342;;;1.17;52.91
2711;BME280;20721;47.402;8.550;2023-02-28T05:03:24;96347;;;1.15;53.13
2711;BME280;20721;47.402;8.550;2023-02-28T05:04:24;96345;;;1.17;53.20
2711;BME280;20721;47.402;8.550;2023-02-28T05:05:24;96350;;;1.18;53.17
2711;BME280;20721;47.402;8.550;2023-02-28T05:06:25;96353;;;1.21;53.06
2711;BME280;20721;47.402;8.550;2023-02-28T05:07:24;96349;;;1.18;53.01
2711;BME280;20721;47.402;8.550;2023-02-28T05:08:25;96351;;;1.21;52.98
2711;BME280;20721;47.402;8.550;2023-02-28T05:09:24;96348;;;1.20;52.82
2711;BME280;20721;47.402;8.550;2023-02-28T05:10:24;96348;;;1.21;52.90
2711;BME280;20721;47.402;8.550;2023-02-28T05:11:25;96349;;;1.23;52.98
2711;BME280;20721;47.402;8.550;2023-02-28T05:12:24;96352;;;1.26;52.94
2711;BME280;20721;47.402;8.550;2023-02-28T05:13:24;96352;;;1.29;52.81
2711;BME280;20721;47.402;8.550;2023-02-28T05:14:24;96353;;;1.32;52.76
2711;BME280;20721;47.402;8.550;2023-02-28T05:15:24;96355;;;1.30;52.71
2711;BME280;20721;47.402;8.550;2023-02-28T05:16:24;96353;;;1.28;52.79
2711;BME280;20721;47.402;8.550;2023-02-28T05:17:24;96358;;;1.24;52.73
2711;BME280;20721;47.402;8.550;2023-02-28T05:18:24;96357;;;1.22;52.66
2711;BME280;20721;47.402;8.550;2023-02-28T05:19:24;96363;;;0.97;52.89
2711;BME280;20721;47.402;8.550;2023-02-28T05:20:24;96364;;;0.76;53.55
2711;BME280;20721;47.402;8.550;2023-02-28T05:21:28;96366;;;0.68;53.84
2711;BME280;20721;47.402;8.550;2023-02-28T05:22:24;96362;;;0.65;54.00
2711;BME280;20721;47.402;8.550;2023-02-28T05:23:24;96367;;;0.67;54.03
2711;BME280;20721;47.402;8.550;2023-02-28T05:24:24;96365;;;0.72;53.96
2711;BME280;20721;47.402;8.550;2023-02-28T05:25:24;96364;;;0.73;53.91
2711;BME280;20721;47.402;8.550;2023-02-28T05:26:24;96367;;;0.70;54.00
2711;BME280;20721;47.402;8.550;2023-02-28T05:27:24;96369;;;0.71;54.11
2711;BME280;20721;47.402;8.550;2023-02-28T05:28:24;96365;;;0.77;53.89
2711;BME280;20721;47.402;8.550;2023-02-28T05:29:24;96365;;;0.68;54.03
2711;BME280;20721;47.402;8.550;2023-02-28T05:30:24;96363;;;0.67;54.21
2711;BME280;20721;47.402;8.550;2023-02-28T05:31:24;96365;;;0.63;54.27
2711;BME280;20721;47.402;8.550;2023-02-28T05:32:24;96368;;;0.65;54.40
2711;BME280;20721;47.402;8.550;2023-02-28T05:33:24;96358;;;0.68;54.23
2711;BME280;20721;47.402;8.550;2023-02-28T05:34:24;96364;;;0.70;54.30
2711;BME280;20721;47.402;8.550;2023-02-28T05:35:24;96356;;;0.75;54.11
2711;BME280;20721;47.402;8.550;2023-02-28T05:36:24;96361;;;0.64;54.11
2711;BME280;20721;47.402;8.550;2023-02-28T05:37:24;96359;;;0.57;54.29
2711;BME280;20721;47.402;8.550;2023-02-28T05:38:24;96359;;;0.50;54.40
2711;BME280;20721;47.402;8.550;2023-02-28T05:39:24;96362;;;0.51;54.44
2711;BME280;20721;47.402;8.550;2023-02-28T05:40:24;96360;;;0.39;54.63
2711;BME280;20721;47.402;8.550;2023-02-28T05:41:24;96361;;;0.32;55.00
2711;BME280;20721;47.402;8.550;2023-02-28T05:42:24;96362;;;0.41;55.03
2711;BME280;20721;47.402;8.550;2023-02-28T05:43:24;96363;;;0.55;54.83
2711;BME280;20721;47.402;8.550;2023-02-28T05:44:24;96361;;;0.57;54.62
2711;BME280;20721;47.402;8.550;2023-02-28T05:45:24;96361;;;0.60;54.65
2711;BME280;20721;47.402;8.550;2023-02-28T05:46:24;96369;;;0.66;54.45
2711;BME280;20721;47.402;8.550;2023-02-28T05:47:24;96362;;;0.61;54.49
2711;BME280;20721;47.402;8.550;2023-02-28T05:48:25;96366;;;0.64;54.57
2711;BME280;20721;47.402;8.550;2023-02-28T05:49:24;96362;;;0.72;54.27
2711;BME280;20721;47.402;8.550;2023-02-28T05:50:24;96362;;;0.82;54.17
2711;BME280;20721;47.402;8.550;2023-02-28T05:51:24;96367;;;0.81;53.95
2711;BME280;20721;47.402;8.550;2023-02-28T05:52:24;96363;;;0.77;53.90
2711;BME280;20721;47.402;8.550;2023-02-28T05:53:24;96365;;;0.81;53.85
2711;BME280;20721;47.402;8.550;2023-02-28T05:54:24;96365;;;0.59;54.13
2711;BME280;20721;47.402;8.550;2023-02-28T05:56:24;96368;;;0.51;54.53
2711;BME280;20721;47.402;8.550;2023-02-28T05:57:25;96370;;;0.47;54.57
2711;BME280;20721;47.402;8.550;2023-02-28T05:58:25;96372;;;0.49;54.66
2711;BME280;20721;47.402;8.550;2023-02-28T05:59:24;96372;;;0.58;54.41
2711;BME280;20721;47.402;8.550;2023-02-28T06:00:24;96370;;;0.67;54.25
2711;BME280;20721;47.402;8.550;2023-02-28T06:01:33;96374;;;0.76;53.97
2711;BME280;20721;47.402;8.550;2023-02-28T06:02:24;96374;;;0.70;53.95
2711;BME280;20721;47.402;8.550;2023-02-28T06:03:24;96372;;;0.74;54.10
2711;BME280;20721;47.402;8.550;2023-02-28T06:04:32;96370;;;0.68;54.00
2711;BME280;20721;47.402;8.550;2023-02-28T06:05:24;96374;;;0.51;54.20
2711;BME280;20721;47.402;8.550;2023-02-28T06:06:24;96371;;;0.46;54.54
2711;BME280;20721;47.402;8.550;2023-02-28T06:07:24;96374;;;0.54;54.46
2711;BME280;20721;47.402;8.550;2023-02-28T06:08:24;96373;;;0.64;54.41
2711;BME280;20721;47.402;8.550;2023-02-28T06:09:24;96376;;;0.67;54.33
2711;BME280;20721;47.402;8.550;2023-02-28T06:10:24;96377;;;0.68;54.35
2711;BME280;20721;47.402;8.550;2023-02-28T06:11:27;96384;;;0.81;54.27
2711;BME280;20721;47.402;8.550;2023-02-28T06:12:24;96377;;;0.88;53.87
2711;BME280;20721;47.402;8.550;2023-02-28T06:13:24;96377;;;0.85;53.71
2711;BME280;20721;47.402;8.550;2023-02-28T06:15:24;96377;;;0.89;53.59
2711;BME280;20721;47.402;8.550;2023-02-28T06:16:24;96376;;;0.83;53.45
2711;BME280;20721;47.402;8.550;2023-02-28T06:18:24;96384;;;0.67;53.75
2711;BME280;20721;47.402;8.550;2023-02-28T06:19:25;96384;;;0.58;54.04
2711;BME280;20721;47.402;8.550;2023-02-28T06:20:24;96383;;;0.56;54.26
2711;BME280;20721;47.402;8.550;2023-02-28T06:21:24;96386;;;0.60;54.29
2711;BME280;20721;47.402;8.550;2023-02-28T06:22:24;96383;;;0.66;54.14
2711;BME280;20721;47.402;8.550;2023-02-28T06:23:24;96386;;;0.71;54.07
2711;BME280;20721;47.402;8.550;2023-02-28T06:24:24;96388;;;0.70;53.79
2711;BME280;20721;47.402;8.550;2023-02-28T06:25:24;96394;;;0.44;54.23
2711;BME280;20721;47.402;8.550;2023-02-28T06:26:24;96391;;;0.25;54.82
2711;BME280;20721;47.402;8.550;2023-02-28T06:28:24;96397;;;0.21;55.06
2711;BME280;20721;47.402;8.550;2023-02-28T06:29:24;96397;;;0.13;55.39
2711;BME280;20721;47.402;8.550;2023-02-28T06:30:26;96397;;;0.11;55.30